Time;durP1;ratioP1;P1;durP2;ratioP2;P2;SDS_P1;SDS_P2;PMS_P1;PMS_P2;Temp;Humidity;BMP_temperature;BMP_pressure;BME280_temperature;BME280_humidity;BME280_pressure;Samples;Min_cycle;Max_cycle;Signal;HPM_P1;HPM_P2
2022/05/22 00:00:26;;;;;;;0.00;0.00;;;20.90;77.30;;;;;;4143127;28;20038;-71
2022/05/22 00:02:53;;;;;;;0.00;0.00;;;20.90;77.70;;;;;;4186933;28;20049;-71
2022/05/22 00:05:19;;;;;;;0.00;0.00;;;20.90;77.70;;;;;;4200616;28;20055;-72
2022/05/22 00:07:43;;;;;;;0.00;0.00;;;20.90;78.00;;;;;;4129526;28;20389;-74
2022/05/22 00:10:06;;;;;;;0.00;0.00;;;20.90;78.00;;;;;;4130057;28;20053;-73
2022/05/22 00:12:28;;;;;;;0.00;0.00;;;20.90;78.00;;;;;;4130189;28;20125;-72
2022/05/22 00:14:55;;;;;;;0.00;0.00;;;20.90;78.00;;;;;;4129508;28;20089;-72
2022/05/22 00:17:19;;;;;;;0.00;0.00;;;20.90;78.10;;;;;;4130251;28;20053;-73
2022/05/22 00:19:43;;;;;;;0.00;0.00;;;20.80;77.80;;;;;;4185323;28;20066;-73
2022/05/22 00:22:07;;;;;;;0.00;0.00;;;20.80;77.90;;;;;;4115896;28;20090;-71
2022/05/22 00:27:32;;;;;;;0.00;0.00;;;20.70;78.10;;;;;;4143852;28;20086;-72
2022/05/22 00:29:56;;;;;;;0.00;0.00;;;20.70;78.30;;;;;;4204261;28;20452;-71
2022/05/22 00:32:28;;;;;;;0.00;0.00;;;20.70;78.50;;;;;;4132877;28;20038;-73
2022/05/22 00:35:08;;;;;;;0.00;0.00;;;20.70;78.30;;;;;;4168069;28;20069;-71
2022/05/22 00:37:35;;;;;;;0.00;0.00;;;20.70;78.10;;;;;;4118721;28;20408;-71
2022/05/22 00:39:58;;;;;;;0.00;0.00;;;20.70;78.00;;;;;;4201938;28;20050;-73
2022/05/22 00:42:36;;;;;;;0.00;0.00;;;20.70;77.60;;;;;;4120261;28;20133;-73
2022/05/22 00:45:08;;;;;;;0.00;0.00;;;20.70;77.50;;;;;;4183588;28;20050;-73
2022/05/22 00:47:33;;;;;;;0.00;0.00;;;20.70;77.30;;;;;;4173399;28;20066;-72
2022/05/22 00:50:05;;;;;;;;;;;20.60;77.10;;;;;;4144743;28;20546;-72
2022/05/22 00:52:35;;;;;;;0.00;0.00;;;20.60;77.00;;;;;;4118344;28;19933;-72
2022/05/22 00:55:14;;;;;;;0.00;0.00;;;20.50;76.70;;;;;;4131421;28;20058;-71
2022/05/22 00:57:52;;;;;;;0.00;0.00;;;20.50;76.50;;;;;;4132491;28;20101;-71
2022/05/22 01:00:34;;;;;;;0.00;0.00;;;20.50;76.50;;;;;;4143823;28;20392;-71
2022/05/22 01:05:48;;;;;;;0.00;0.00;;;20.50;74.80;;;;;;4144991;28;20046;-70
2022/05/22 01:08:13;;;;;;;0.00;0.00;;;20.50;73.90;;;;;;4132537;28;20050;-71
2022/05/22 01:10:49;;;;;;;0.00;0.00;;;20.40;73.10;;;;;;4145159;28;20058;-74
2022/05/22 01:13:24;;;;;;;0.00;0.00;;;20.40;72.90;;;;;;4105342;28;20245;-71
2022/05/22 01:16:06;;;;;;;0.00;0.00;;;20.40;73.00;;;;;;4194228;28;20077;-74
2022/05/22 01:18:45;;;;;;;0.00;0.00;;;20.40;73.00;;;;;;4190308;28;20070;-72
2022/05/22 01:21:19;;;;;;;0.00;0.00;;;20.30;72.90;;;;;;4200088;28;20054;-72
2022/05/22 01:23:42;;;;;;;0.00;0.00;;;20.20;71.80;;;;;;4174912;28;20056;-71
2022/05/22 01:26:14;;;;;;;0.00;0.00;;;20.20;71.10;;;;;;4189083;28;20474;-72
2022/05/22 01:28:39;;;;;;;0.00;0.00;;;20.20;70.50;;;;;;4202504;28;20060;-71
2022/05/22 01:31:09;;;;;;;0.00;0.00;;;20.10;70.60;;;;;;4144825;28;20060;-72
2022/05/22 01:33:42;;;;;;;0.00;0.00;;;20.00;70.60;;;;;;4189040;28;20064;-74
2022/05/22 01:36:05;;;;;;;0.00;0.00;;;20.00;70.40;;;;;;4131383;28;20046;-72
2022/05/22 01:38:33;;;;;;;0.00;0.00;;;20.00;70.40;;;;;;4188800;28;20056;-73
2022/05/22 01:40:58;;;;;;;0.00;0.00;;;20.00;70.50;;;;;;4131206;28;20085;-71
2022/05/22 01:43:36;;;;;;;0.00;0.00;;;19.90;70.70;;;;;;4119619;28;20058;-71
2022/05/22 01:46:07;;;;;;;0.00;0.00;;;19.80;70.80;;;;;;4104391;28;20145;-71
2022/05/22 01:48:37;;;;;;;0.00;0.00;;;19.50;70.70;;;;;;4188358;28;20179;-70
2022/05/22 01:50:59;;;;;;;0.00;0.00;;;19.40;70.20;;;;;;4117601;28;20129;-73
2022/05/22 01:53:26;;;;;;;0.00;0.00;;;19.40;69.20;;;;;;4188261;28;20063;-70
2022/05/22 01:55:51;;;;;;;0.00;0.00;;;19.40;68.70;;;;;;4187553;28;20047;-72
2022/05/22 01:58:17;;;;;;;0.00;0.00;;;19.50;68.20;;;;;;4104289;28;20055;-71
2022/05/22 02:00:39;;;;;;;0.00;0.00;;;19.40;67.70;;;;;;4104001;28;20043;-74
2022/05/22 02:03:03;;;;;;;0.00;0.00;;;19.30;67.60;;;;;;4188153;28;20139;-74
2022/05/22 02:05:29;;;;;;;0.00;0.00;;;19.10;67.70;;;;;;4159301;28;20058;-74
2022/05/22 02:10:38;;;;;;;0.00;0.00;;;19.10;67.80;;;;;;4131206;28;20103;-73
2022/05/22 02:13:02;;;;;;;0.00;0.00;;;19.20;67.60;;;;;;4130912;28;20130;-71
2022/05/22 02:15:25;;;;;;;0.00;0.00;;;19.20;67.50;;;;;;4131347;28;20062;-73
2022/05/22 02:17:47;;;;;;;0.00;0.00;;;19.20;67.20;;;;;;4117226;28;20054;-70
2022/05/22 02:20:10;;;;;;;0.00;0.00;;;19.10;68.00;;;;;;4117884;28;20055;-70
2022/05/22 02:22:40;;;;;;;0.00;0.00;;;19.10;68.10;;;;;;4103964;28;20055;-71
2022/05/22 02:25:05;;;;;;;0.00;0.00;;;19.20;68.20;;;;;;4130851;28;20141;-72
2022/05/22 02:27:28;;;;;;;0.00;0.00;;;19.30;68.20;;;;;;4130642;28;20042;-72
2022/05/22 02:29:53;;;;;;;0.00;0.00;;;19.30;68.40;;;;;;4117334;28;20069;-72
2022/05/22 02:32:18;;;;;;;0.00;0.00;;;19.40;68.40;;;;;;4103836;28;20447;-71
2022/05/22 02:34:44;;;;;;;0.00;0.00;;;19.30;68.40;;;;;;4130351;28;20093;-71
2022/05/22 02:37:08;;;;;;;0.00;0.00;;;19.40;68.60;;;;;;4130548;28;20177;-72
2022/05/22 02:39:33;;;;;;;0.00;0.00;;;19.40;68.30;;;;;;4130904;28;20072;-70
2022/05/22 02:42:12;;;;;;;0.00;0.00;;;19.30;68.40;;;;;;4130682;28;20137;-73
2022/05/22 02:44:35;;;;;;;0.00;0.00;;;19.20;68.50;;;;;;4117107;28;20421;-73
2022/05/22 02:46:57;;;;;;;0.00;0.00;;;19.20;68.30;;;;;;4103667;28;20175;-72
2022/05/22 02:49:24;;;;;;;0.00;0.00;;;19.20;68.30;;;;;;4130253;28;20101;-73
2022/05/22 02:51:49;;;;;;;0.00;0.00;;;19.20;68.50;;;;;;4173077;28;20048;-72
2022/05/22 02:54:13;;;;;;;0.00;0.00;;;19.30;68.80;;;;;;4130423;28;20107;-72
2022/05/22 02:56:48;;;;;;;0.00;0.00;;;19.30;68.80;;;;;;4130587;28;20054;-71
2022/05/22 02:59:16;;;;;;;0.00;0.00;;;19.20;68.80;;;;;;4116710;28;20042;-72
2022/05/22 03:01:57;;;;;;;0.00;0.00;;;19.20;68.90;;;;;;4103395;28;20051;-72
2022/05/22 03:04:24;;;;;;;0.00;0.00;;;19.20;69.00;;;;;;4170589;28;20079;-72
2022/05/22 03:06:56;;;;;;;0.00;0.00;;;19.20;69.20;;;;;;4103571;28;20043;-74
2022/05/22 03:09:21;;;;;;;0.00;0.00;;;19.20;69.10;;;;;;4130436;28;20096;-70
2022/05/22 03:11:47;;;;;;;0.00;0.00;;;19.20;69.10;;;;;;4130563;28;20125;-71
2022/05/22 03:14:13;;;;;;;0.00;0.00;;;19.20;69.30;;;;;;4116649;28;20144;-71
2022/05/22 03:16:37;;;;;;;0.00;0.00;;;19.10;69.50;;;;;;4200619;28;20072;-75
2022/05/22 03:19:22;;;;;;;0.00;0.00;;;19.10;69.40;;;;;;4116684;28;20172;-71
2022/05/22 03:21:50;;;;;;;0.00;0.00;;;19.00;69.60;;;;;;4129997;28;20062;-72
2022/05/22 03:24:12;;;;;;;0.00;0.00;;;18.90;69.70;;;;;;4173731;28;20463;-70
2022/05/22 03:26:42;;;;;;;0.00;0.00;;;18.90;70.00;;;;;;4129996;28;20050;-73
2022/05/22 03:29:07;;;;;;;0.00;0.00;;;18.80;70.20;;;;;;4170792;28;20527;-71
2022/05/22 03:31:29;;;;;;;0.00;0.00;;;18.80;70.30;;;;;;4187255;28;20051;-71
2022/05/22 03:33:56;;;;;;;0.00;0.00;;;18.80;70.30;;;;;;4103123;28;20134;-72
2022/05/22 03:36:20;;;;;;;0.00;0.00;;;18.70;71.00;;;;;;4116571;28;20193;-72
2022/05/22 03:38:45;;;;;;;0.00;0.00;;;18.60;70.50;;;;;;4201464;28;20052;-70
2022/05/22 03:41:07;;;;;;;0.00;0.00;;;18.50;71.00;;;;;;4173358;28;20064;-73
2022/05/22 03:43:32;;;;;;;0.00;0.00;;;18.50;71.10;;;;;;4130112;28;20101;-74
2022/05/22 03:45:56;;;;;;;0.00;0.00;;;18.60;71.00;;;;;;4129688;28;20501;-73
2022/05/22 03:48:18;;;;;;;0.00;0.00;;;18.60;70.90;;;;;;4116647;28;20050;-71
2022/05/22 03:50:43;;;;;;;0.00;0.00;;;18.60;70.90;;;;;;4102946;28;20509;-69
2022/05/22 03:53:07;;;;;;;0.00;0.00;;;18.50;71.10;;;;;;4187012;28;20053;-71
2022/05/22 03:55:36;;;;;;;0.00;0.00;;;18.50;71.40;;;;;;4195700;28;20446;-72
2022/05/22 03:58:04;;;;;;;0.00;0.00;;;18.50;71.60;;;;;;4102914;28;20047;-71
2022/05/22 04:00:26;;;;;;;0.00;0.00;;;18.50;71.80;;;;;;4116259;28;20539;-71
2022/05/22 04:02:54;;;;;;;0.00;0.00;;;18.50;71.80;;;;;;4104618;28;20051;-70
2022/05/22 04:05:17;;;;;;;0.00;0.00;;;18.50;71.90;;;;;;4190354;28;20036;-72
2022/05/22 04:07:43;;;;;;;0.00;0.00;;;18.50;72.20;;;;;;4189974;28;20087;-70
2022/05/22 04:10:07;;;;;;;0.00;0.00;;;18.50;72.10;;;;;;4132478;28;20141;-70
2022/05/22 04:12:38;;;;;;;0.00;0.00;;;18.50;72.20;;;;;;4119390;28;20075;-72
2022/05/22 04:15:03;;;;;;;0.00;0.00;;;18.60;72.40;;;;;;4105578;28;20051;-72
2022/05/22 04:17:27;;;;;;;0.00;0.00;;;18.60;72.50;;;;;;4176298;28;20052;-72
2022/05/22 04:19:51;;;;;;;0.00;0.00;;;18.60;72.70;;;;;;4173770;28;20572;-72
2022/05/22 04:22:20;;;;;;;0.00;0.00;;;18.60;73.00;;;;;;4132618;28;20103;-71
2022/05/22 04:27:25;;;;;;;0.00;0.00;;;18.60;73.50;;;;;;4132473;28;20058;-71
2022/05/22 04:29:48;;;;;;;0.00;0.00;;;18.70;73.60;;;;;;4189856;28;20110;-73
2022/05/22 04:32:13;;;;;;;0.00;0.00;;;18.70;73.50;;;;;;4105275;28;20143;-71
2022/05/22 04:34:43;;;;;;;0.00;0.00;;;18.80;73.40;;;;;;4105281;28;20059;-70
2022/05/22 04:37:09;;;;;;;0.00;0.00;;;18.80;73.50;;;;;;4132400;28;20093;-71
2022/05/22 04:39:39;;;;;;;0.00;0.00;;;18.70;73.40;;;;;;4105158;28;20141;-70
2022/05/22 04:42:08;;;;;;;0.00;0.00;;;18.80;73.50;;;;;;4105230;28;20109;-72
2022/05/22 04:44:33;;;;;;;0.00;0.00;;;18.70;73.70;;;;;;4175917;28;20064;-71
2022/05/22 04:47:18;;;;;;;0.00;0.00;;;18.80;73.60;;;;;;4192404;28;20043;-72
2022/05/22 04:50:00;;;;;;;0.00;0.00;;;18.70;73.50;;;;;;4118638;28;20065;-71
2022/05/22 04:52:27;;;;;;;0.00;0.00;;;18.70;73.40;;;;;;4105445;28;20512;-70
2022/05/22 04:54:53;;;;;;;0.00;0.00;;;18.70;73.40;;;;;;4174894;28;20386;-72
2022/05/22 04:57:18;;;;;;;0.00;0.00;;;18.70;73.30;;;;;;4104854;28;20138;-71
2022/05/22 04:59:40;;;;;;;0.00;0.00;;;18.70;73.30;;;;;;4104851;28;20134;-72
2022/05/22 05:02:07;;;;;;;0.00;0.00;;;18.70;73.50;;;;;;4203604;28;20048;-71
2022/05/22 05:04:58;;;;;;;0.00;0.00;;;18.80;73.60;;;;;;4117965;28;20119;-70
2022/05/22 05:07:28;;;;;;;0.00;0.00;;;18.70;73.70;;;;;;4170257;28;20051;-73
2022/05/22 05:09:57;;;;;;;0.00;0.00;;;18.60;74.30;;;;;;4189306;28;20078;-73
2022/05/22 05:12:42;;;;;;;0.00;0.00;;;18.50;74.80;;;;;;4117551;28;20047;-69
2022/05/22 05:15:21;;;;;;;0.00;0.00;;;18.50;75.10;;;;;;4104736;28;20058;-71
2022/05/22 05:17:53;;;;;;;0.00;0.00;;;18.60;75.00;;;;;;4131765;28;20058;-72
2022/05/22 05:20:23;;;;;;;0.00;0.00;;;18.70;75.10;;;;;;4104806;28;20109;-71
2022/05/22 05:22:53;;;;;;;0.00;0.00;;;18.80;75.00;;;;;;4104940;28;20051;-72
2022/05/22 05:25:27;;;;;;;0.00;0.00;;;18.80;75.10;;;;;;4188905;28;20131;-74
2022/05/22 05:27:51;;;;;;;0.00;0.00;;;18.70;75.40;;;;;;4188854;28;20044;-71
2022/05/22 05:30:18;;;;;;;0.00;0.00;;;18.80;75.40;;;;;;4091331;28;20055;-71
2022/05/22 05:32:41;;;;;;;0.00;0.00;;;18.80;75.40;;;;;;4131772;28;20054;-69
2022/05/22 05:35:14;;;;;;;0.00;0.00;;;18.80;75.30;;;;;;4166846;28;20062;-75
2022/05/22 05:37:38;;;;;;;0.00;0.00;;;18.70;75.50;;;;;;4188392;28;20098;-73
2022/05/22 05:40:16;;;;;;;0.00;0.00;;;18.80;75.90;;;;;;4104512;28;20078;-71
2022/05/22 05:42:39;;;;;;;0.00;0.00;;;18.80;75.60;;;;;;4104478;28;20047;-72
2022/05/22 05:45:10;;;;;;;0.00;0.00;;;18.90;75.70;;;;;;4188535;28;20550;-70
2022/05/22 05:47:58;;;;;;;0.00;0.00;;;19.10;75.80;;;;;;4117839;28;20115;-71
2022/05/22 05:50:29;;;;;;;0.00;0.00;;;19.30;75.40;;;;;;4131111;28;20137;-72
2022/05/22 05:53:02;;;;;;;0.00;0.00;;;19.40;74.80;;;;;;4188695;28;20055;-74
2022/05/22 05:55:35;;;;;;;0.00;0.00;;;19.50;74.50;;;;;;4117759;28;20067;-70
2022/05/22 05:58:26;;;;;;;0.00;0.00;;;19.50;74.10;;;;;;4117665;28;20061;-71
2022/05/22 06:01:16;;;;;;;0.00;0.00;;;19.60;73.70;;;;;;4131556;28;20057;-69
2022/05/22 06:03:43;;;;;;;0.00;0.00;;;19.70;73.40;;;;;;4104335;28;20524;-71
2022/05/22 06:06:12;;;;;;;0.00;0.00;;;19.70;73.30;;;;;;4188602;28;20072;-71
2022/05/22 06:08:38;;;;;;;0.00;0.00;;;19.70;73.70;;;;;;4122454;28;20042;-70
2022/05/22 06:11:18;;;;;;;0.00;0.00;;;19.70;73.60;;;;;;4124716;28;20121;-70
2022/05/22 06:13:48;;;;;;;0.00;0.00;;;19.60;73.50;;;;;;4104081;28;20055;-69
2022/05/22 06:16:12;;;;;;;0.00;0.00;;;19.70;73.60;;;;;;4117655;28;20101;-70
2022/05/22 06:19:04;;;;;;;0.00;0.00;;;19.80;73.20;;;;;;4110512;28;20116;-71
2022/05/22 06:21:27;;;;;;;0.00;0.00;;;20.00;72.80;;;;;;4130625;28;20448;-72
2022/05/22 06:23:51;;;;;;;0.00;0.00;;;20.00;72.40;;;;;;4103510;28;20070;-73
2022/05/22 06:26:31;;;;;;;0.00;0.00;;;19.90;72.50;;;;;;4144297;28;20157;-73
2022/05/22 06:29:12;;;;;;;0.00;0.00;;;19.90;73.20;;;;;;4090539;28;20494;-72
2022/05/22 06:31:55;;;;;;;0.00;0.00;;;20.10;73.10;;;;;;4143675;28;20038;-73
2022/05/22 06:34:36;;;;;;;0.00;0.00;;;20.00;72.90;;;;;;4130726;28;20057;-73
2022/05/22 06:37:35;;;;;;;0.00;0.00;;;20.10;72.90;;;;;;4120163;28;20065;-72
2022/05/22 06:40:26;;;;;;;0.00;0.00;;;19.90;73.10;;;;;;4097714;28;20065;-71
2022/05/22 06:42:59;;;;;;;0.00;0.00;;;20.00;73.10;;;;;;4130627;28;20112;-72
2022/05/22 06:45:48;;;;;;;0.00;0.00;;;20.10;73.60;;;;;;4103717;28;20083;-72
2022/05/22 06:48:36;;;;;;;0.00;0.00;;;20.30;72.80;;;;;;4124955;28;20437;-72
2022/05/22 06:51:18;;;;;;;0.00;0.00;;;20.50;72.60;;;;;;4114419;28;20079;-71
2022/05/22 06:53:45;;;;;;;0.00;0.00;;;20.70;72.20;;;;;;4130588;28;20440;-71
2022/05/22 06:56:39;;;;;;;0.00;0.00;;;20.80;72.00;;;;;;4109922;28;20073;-72
2022/05/22 06:59:21;;;;;;;0.00;0.00;;;20.80;72.10;;;;;;4106114;28;20039;-72
2022/05/22 07:02:08;;;;;;;0.00;0.00;;;20.80;72.00;;;;;;4117058;28;20061;-71
2022/05/22 07:04:56;;;;;;;0.00;0.00;;;20.80;72.30;;;;;;4119473;28;20059;-73
2022/05/22 07:07:33;;;;;;;0.00;0.00;;;20.90;71.90;;;;;;4132834;28;20050;-72
2022/05/22 07:10:18;;;;;;;0.00;0.00;;;20.90;72.00;;;;;;4119002;28;20047;-71
2022/05/22 07:12:59;;;;;;;0.00;0.00;;;21.00;72.10;;;;;;4174264;28;20431;-72
2022/05/22 07:16:07;;;;;;;0.00;0.00;;;20.90;72.30;;;;;;4117521;28;20043;-70
2022/05/22 07:19:18;;;;;;;0.00;0.00;;;20.70;72.70;;;;;;4124875;28;20093;-72
2022/05/22 07:21:49;;;;;;;0.00;0.00;;;20.60;73.10;;;;;;4117995;28;20066;-72
2022/05/22 07:24:28;;;;;;;0.00;0.00;;;20.70;73.30;;;;;;4093843;28;20059;-72
2022/05/22 07:27:12;;;;;;;0.00;0.00;;;20.90;72.70;;;;;;4144257;28;20067;-70
2022/05/22 07:29:50;;;;;;;0.00;0.00;;;21.10;72.70;;;;;;4103079;28;20048;-71
2022/05/22 07:32:21;;;;;;;0.00;0.00;;;21.30;72.40;;;;;;4103297;28;20421;-73
2022/05/22 07:35:02;;;;;;;0.00;0.00;;;21.40;72.20;;;;;;4132568;28;20125;-72
2022/05/22 07:37:49;;;;;;;0.00;0.00;;;21.40;72.10;;;;;;4103159;28;20078;-71
2022/05/22 07:40:34;;;;;;;0.00;0.00;;;21.40;72.20;;;;;;4143409;28;20050;-73
2022/05/22 07:43:22;;;;;;;0.00;0.00;;;21.40;72.00;;;;;;4129992;28;20054;-72
2022/05/22 07:46:04;;;;;;;0.00;0.00;;;21.50;72.10;;;;;;4116192;28;20047;-70
2022/05/22 07:48:43;;;;;;;0.00;0.00;;;21.60;72.10;;;;;;4104704;28;20063;-73
2022/05/22 07:51:26;;;;;;;0.00;0.00;;;21.60;72.30;;;;;;4103557;28;20316;-74
2022/05/22 07:54:08;;;;;;;0.00;0.00;;;21.60;72.00;;;;;;4120691;28;20042;-74
2022/05/22 07:57:01;;;;;;;0.00;0.00;;;21.50;72.20;;;;;;4162349;28;20472;-73
2022/05/22 07:59:29;;;;;;;0.00;0.00;;;21.40;72.70;;;;;;4117898;28;20047;-72
2022/05/22 08:02:14;;;;;;;0.00;0.00;;;21.50;72.70;;;;;;4107338;28;20070;-74
2022/05/22 08:04:46;;;;;;;0.00;0.00;;;21.70;72.20;;;;;;4119368;28;20108;-72
2022/05/22 08:07:09;;;;;;;0.00;0.00;;;21.80;72.20;;;;;;4144881;28;20054;-72
2022/05/22 08:09:39;;;;;;;;;;;22.00;72.00;;;;;;4093115;28;20055;-71
2022/05/22 08:12:01;;;;;;;0.00;0.00;;;22.00;71.60;;;;;;4103922;28;19922;-72
2022/05/22 08:14:26;;;;;;;0.00;0.00;;;22.00;71.50;;;;;;4091734;28;20071;-70
2022/05/22 08:16:55;;;;;;;0.00;0.00;;;22.20;71.00;;;;;;4119829;28;20637;-68
2022/05/22 08:19:20;;;;;;;0.00;0.00;;;22.00;70.60;;;;;;4117955;28;20697;-68
2022/05/22 08:22:16;;;;;;;0.00;0.00;;;22.00;70.70;;;;;;4132637;28;20061;-67
2022/05/22 08:25:08;;;;;;;0.00;0.00;;;21.90;70.70;;;;;;4129852;28;20522;-66
2022/05/22 08:27:36;;;;;;;0.00;0.00;;;22.00;70.90;;;;;;4130427;28;20062;-66
2022/05/22 08:29:58;;;;;;;0.00;0.00;;;22.10;70.50;;;;;;4131212;28;20465;-67
2022/05/22 08:32:26;;;;;;;0.00;0.00;;;22.20;70.40;;;;;;4105056;28;20520;-67
2022/05/22 08:34:51;;;;;;;0.00;0.00;;;22.30;70.20;;;;;;4104453;28;20086;-67
2022/05/22 08:37:16;;;;;;;0.00;0.00;;;22.30;70.00;;;;;;4131063;28;20054;-68
2022/05/22 08:39:38;;;;;;;0.00;0.00;;;22.30;70.20;;;;;;4117415;28;20046;-70
2022/05/22 08:42:06;;;;;;;0.00;0.00;;;22.30;70.40;;;;;;4117814;28;20377;-66
2022/05/22 08:44:32;;;;;;;0.00;0.00;;;22.30;70.80;;;;;;4091255;28;20063;-68
2022/05/22 08:47:08;;;;;;;0.00;0.00;;;22.30;70.80;;;;;;4117579;28;20078;-67
2022/05/22 08:49:36;;;;;;;0.00;0.00;;;22.30;70.90;;;;;;4133526;28;20111;-69
2022/05/22 08:52:09;;;;;;;0.00;0.00;;;22.30;71.10;;;;;;4133432;28;20050;-68
2022/05/22 08:54:37;;;;;;;0.00;0.00;;;22.20;71.00;;;;;;4093296;28;20047;-68
2022/05/22 08:59:48;;;;;;;0.00;0.00;;;22.30;71.10;;;;;;4120431;28;20051;-67
2022/05/22 09:02:35;;;;;;;0.00;0.00;;;22.30;71.30;;;;;;4106800;28;20059;-68
2022/05/22 09:05:06;;;;;;;0.00;0.00;;;22.40;71.30;;;;;;4119127;28;20093;-67
2022/05/22 09:08:01;;;;;;;0.00;0.00;;;22.40;71.00;;;;;;4132021;28;20063;-68
2022/05/22 09:10:32;;;;;;;0.00;0.00;;;22.40;70.90;;;;;;4118286;28;20102;-70
2022/05/22 09:13:30;;;;;;;0.00;0.00;;;22.50;71.20;;;;;;4131935;28;20058;-67
2022/05/22 09:16:12;;;;;;;0.00;0.00;;;22.50;71.00;;;;;;4118464;28;20359;-69
2022/05/22 09:18:54;;;;;;;0.00;0.00;;;22.60;70.90;;;;;;4104942;28;20055;-69
2022/05/22 09:21:40;;;;;;;0.00;0.00;;;22.60;70.90;;;;;;4132124;28;20137;-67
2022/05/22 09:24:07;;;;;;;0.00;0.00;;;22.60;70.70;;;;;;4104930;28;20455;-71
2022/05/22 09:26:32;;;;;;;0.00;0.00;;;22.50;71.30;;;;;;4145085;28;20084;-68
2022/05/22 09:29:07;;;;;;;0.00;0.00;;;22.60;70.70;;;;;;4118117;28;20051;-69
2022/05/22 09:31:57;;;;;;;0.00;0.00;;;22.60;70.70;;;;;;4118005;28;20058;-70
2022/05/22 09:34:25;;;;;;;0.00;0.00;;;22.60;70.40;;;;;;4117979;28;20042;-68
2022/05/22 09:37:25;;;;;;;0.00;0.00;;;22.60;70.40;;;;;;4131821;28;20057;-66
2022/05/22 09:40:27;;;;;;;0.00;0.00;;;22.70;70.70;;;;;;4117680;28;20057;-67
2022/05/22 09:43:06;;;;;;;0.00;0.00;;;22.70;70.70;;;;;;4117769;28;20055;-69
2022/05/22 09:45:48;;;;;;;0.00;0.00;;;22.70;70.40;;;;;;4131288;28;20058;-71
2022/05/22 09:48:25;;;;;;;0.00;0.00;;;22.60;70.10;;;;;;4104788;28;20063;-68
2022/05/22 09:50:47;;;;;;;0.00;0.00;;;22.60;70.30;;;;;;4118142;28;20058;-67
2022/05/22 09:53:33;;;;;;;0.00;0.00;;;22.60;70.70;;;;;;4118159;28;20097;-68
2022/05/22 09:56:11;;;;;;;0.00;0.00;;;22.50;70.50;;;;;;4118069;28;20053;-68
2022/05/22 09:58:52;;;;;;;0.00;0.00;;;22.50;70.20;;;;;;4104870;28;20480;-71
2022/05/22 10:01:27;;;;;;;0.00;0.00;;;22.40;70.30;;;;;;4117906;28;20055;-68
2022/05/22 10:03:55;;;;;;;0.00;0.00;;;22.50;71.00;;;;;;4117286;28;20378;-70
2022/05/22 10:06:50;;;;;;;0.00;0.00;;;22.50;71.20;;;;;;4117502;28;20112;-68
2022/05/22 10:09:51;;;;;;;0.00;0.00;;;22.70;71.50;;;;;;4103977;28;20113;-71
2022/05/22 10:12:24;;;;;;;0.00;0.00;;;22.60;71.80;;;;;;4117638;28;20046;-68
2022/05/22 10:15:11;;;;;;;0.00;0.00;;;22.70;71.70;;;;;;4117815;28;20062;-71
2022/05/22 10:18:02;;;;;;;0.00;0.00;;;22.80;71.60;;;;;;4104428;28;20086;-71
2022/05/22 10:20:53;;;;;;;0.00;0.00;;;22.90;71.20;;;;;;4117156;28;20051;-69
2022/05/22 10:23:43;;;;;;;0.00;0.00;;;22.90;71.70;;;;;;4104164;28;20394;-69
2022/05/22 10:26:29;;;;;;;0.00;0.00;;;23.10;72.30;;;;;;4117350;28;20130;-69
2022/05/22 10:29:30;;;;;;;0.00;0.00;;;23.30;71.90;;;;;;4117333;28;20516;-70
2022/05/22 10:32:00;;;;;;;0.00;0.00;;;23.40;71.50;;;;;;4090734;28;20506;-69
2022/05/22 10:34:40;;;;;;;0.00;0.00;;;23.50;70.90;;;;;;4104366;28;20102;-69
2022/05/22 10:37:14;;;;;;;0.00;0.00;;;23.50;70.80;;;;;;4130555;28;20100;-68
2022/05/22 10:39:38;;;;;;;0.00;0.00;;;23.50;70.70;;;;;;4117419;28;20362;-68
2022/05/22 10:42:46;;;;;;;0.00;0.00;;;23.50;70.70;;;;;;4116912;28;20047;-69
2022/05/22 10:45:20;;;;;;;0.00;0.00;;;23.70;70.80;;;;;;4117482;28;20093;-68
2022/05/22 10:47:44;;;;;;;0.00;0.00;;;23.70;71.10;;;;;;4116747;28;20136;-70
2022/05/22 10:50:26;;;;;;;0.00;0.00;;;23.80;71.20;;;;;;4116625;28;20086;-71
2022/05/22 10:52:54;;;;;;;0.00;0.00;;;23.90;70.70;;;;;;4116893;28;20077;-70
2022/05/22 10:55:44;;;;;;;0.00;0.00;;;23.80;70.70;;;;;;4116828;28;20053;-72
2022/05/22 10:58:28;;;;;;;0.00;0.00;;;23.90;71.50;;;;;;4116954;28;20082;-69
2022/05/22 11:01:05;;;;;;;0.00;0.00;;;24.00;71.90;;;;;;4129971;28;20047;-71
2022/05/22 11:03:34;;;;;;;0.00;0.00;;;24.20;70.90;;;;;;4103511;28;20051;-72
2022/05/22 11:05:59;;;;;;;0.00;0.00;;;24.20;70.60;;;;;;4103727;28;20371;-70
2022/05/22 11:08:29;;;;;;;0.00;0.00;;;24.20;70.30;;;;;;4116732;28;20047;-70
2022/05/22 11:10:56;;;;;;;0.00;0.00;;;24.10;69.70;;;;;;4115939;28;20043;-70
2022/05/22 11:13:25;;;;;;;0.00;0.00;;;24.10;69.90;;;;;;4130321;28;20054;-69
2022/05/22 11:15:54;;;;;;;0.00;0.00;;;24.10;70.20;;;;;;4103327;28;20154;-70
2022/05/22 11:18:19;;;;;;;0.00;0.00;;;24.10;70.60;;;;;;4173582;28;20114;-72
2022/05/22 11:20:49;;;;;;;0.00;0.00;;;24.10;70.40;;;;;;4103270;28;20502;-70
2022/05/22 11:23:36;;;;;;;0.00;0.00;;;24.10;70.00;;;;;;4129995;28;20057;-67
2022/05/22 11:26:21;;;;;;;0.00;0.00;;;24.10;70.00;;;;;;4129675;28;20111;-70
2022/05/22 11:29:11;;;;;;;0.00;0.00;;;24.00;69.90;;;;;;4129900;28;20054;-72
2022/05/22 11:31:45;;;;;;;0.00;0.00;;;24.20;70.60;;;;;;4116819;28;20046;-70
2022/05/22 11:34:37;;;;;;;0.00;0.00;;;24.30;71.40;;;;;;4116791;28;20043;-69
2022/05/22 11:37:01;;;;;;;0.00;0.00;;;24.40;70.90;;;;;;4116502;28;20051;-69
2022/05/22 11:40:01;;;;;;;0.00;0.00;;;24.40;70.60;;;;;;4116387;28;20043;-68
2022/05/22 11:42:26;;;;;;;0.00;0.00;;;24.50;70.00;;;;;;4116653;28;20096;-69
2022/05/22 11:45:13;;;;;;;0.00;0.00;;;24.50;69.50;;;;;;4102826;28;20051;-75
2022/05/22 11:48:11;;;;;;;0.00;0.00;;;24.60;69.50;;;;;;4116314;28;20047;-69
2022/05/22 11:50:59;;;;;;;0.00;0.00;;;24.60;69.70;;;;;;4129259;28;20404;-70
2022/05/22 11:53:41;;;;;;;0.00;0.00;;;24.50;68.50;;;;;;4102935;28;20454;-69
2022/05/22 11:56:05;;;;;;;0.00;0.00;;;24.20;68.70;;;;;;4117304;28;20053;-73
2022/05/22 11:58:45;;;;;;;0.00;0.00;;;24.30;69.30;;;;;;4103098;28;20637;-72
2022/05/22 12:01:19;;;;;;;0.00;0.00;;;24.30;69.20;;;;;;4115655;28;20062;-71
2022/05/22 12:04:06;;;;;;;0.00;0.00;;;24.20;69.10;;;;;;4102540;28;20055;-71
2022/05/22 12:07:06;;;;;;;0.00;0.00;;;24.20;69.30;;;;;;4116316;28;20050;-71
2022/05/22 12:09:51;;;;;;;0.00;0.00;;;24.40;69.50;;;;;;4129449;28;20051;-72
2022/05/22 12:12:24;;;;;;;0.00;0.00;;;24.60;69.10;;;;;;4115903;28;20042;-72
2022/05/22 12:15:06;;;;;;;0.00;0.00;;;24.60;69.00;;;;;;4116653;28;20072;-71
2022/05/22 12:17:45;;;;;;;0.00;0.00;;;24.70;68.50;;;;;;4116228;28;20113;-72
2022/05/22 12:20:45;;;;;;;0.00;0.00;;;24.60;68.80;;;;;;4115807;28;20062;-72
2022/05/22 12:23:26;;;;;;;0.00;0.00;;;24.60;68.80;;;;;;4109307;28;20062;-71
2022/05/22 12:26:02;;;;;;;0.00;0.00;;;24.80;68.80;;;;;;4118825;28;20059;-72
2022/05/22 12:28:39;;;;;;;0.00;0.00;;;25.00;69.00;;;;;;4105117;28;20062;-73
2022/05/22 12:31:15;;;;;;;0.00;0.00;;;25.20;68.90;;;;;;4131541;28;20053;-73
2022/05/22 12:33:41;;;;;;;0.00;0.00;;;25.10;68.30;;;;;;4105480;28;20401;-72
2022/05/22 12:36:07;;;;;;;0.00;0.00;;;24.80;68.70;;;;;;4118084;28;20134;-72
2022/05/22 12:38:41;;;;;;;0.00;0.00;;;24.80;68.60;;;;;;4118626;28;20074;-73
2022/05/22 12:41:24;;;;;;;0.00;0.00;;;25.00;67.80;;;;;;4105149;28;20059;-72
2022/05/22 12:43:49;;;;;;;0.00;0.00;;;24.80;68.80;;;;;;4105242;28;20059;-71
2022/05/22 12:46:12;;;;;;;0.00;0.00;;;24.90;69.20;;;;;;4118557;28;20650;-71
2022/05/22 12:48:39;;;;;;;0.00;0.00;;;25.10;68.90;;;;;;4118424;28;20493;-72
2022/05/22 12:51:22;;;;;;;0.00;0.00;;;25.30;68.50;;;;;;4104874;28;20504;-72
2022/05/22 12:53:52;;;;;;;0.00;0.00;;;25.10;68.90;;;;;;4118622;28;20049;-72
2022/05/22 12:56:29;;;;;;;0.00;0.00;;;25.00;69.20;;;;;;4132548;28;20480;-72
2022/05/22 12:59:00;;;;;;;0.00;0.00;;;25.10;70.00;;;;;;4118610;28;20473;-72
2022/05/22 13:01:34;;;;;;;0.00;0.00;;;25.20;69.20;;;;;;4118622;28;20055;-70
2022/05/22 13:04:06;;;;;;;0.00;0.00;;;25.40;69.00;;;;;;4118627;28;20055;-71
2022/05/22 13:06:57;;;;;;;0.00;0.00;;;25.50;68.30;;;;;;4118800;28;20062;-73
2022/05/22 13:09:24;;;;;;;0.00;0.00;;;25.70;68.30;;;;;;4104918;28;20378;-71
2022/05/22 13:12:02;;;;;;;0.00;0.00;;;25.60;69.30;;;;;;4118581;28;20114;-70
2022/05/22 13:14:40;;;;;;;0.00;0.00;;;25.50;68.40;;;;;;4118400;28;20043;-71
2022/05/22 13:17:06;;;;;;;0.00;0.00;;;25.40;68.80;;;;;;4104650;28;20043;-72
2022/05/22 13:19:32;;;;;;;0.00;0.00;;;25.30;68.30;;;;;;4118534;28;20062;-72
2022/05/22 13:21:58;;;;;;;0.00;0.00;;;25.40;68.00;;;;;;4118509;28;20055;-71
2022/05/22 13:24:25;;;;;;;0.00;0.00;;;25.60;67.30;;;;;;4104765;28;20437;-72
2022/05/22 13:27:03;;;;;;;0.00;0.00;;;25.60;67.80;;;;;;4118213;28;20137;-71
2022/05/22 13:30:00;;;;;;;0.00;0.00;;;25.70;68.00;;;;;;4117957;28;20108;-71
2022/05/22 13:32:39;;;;;;;0.00;0.00;;;25.50;67.30;;;;;;4117991;28;20497;-71
2022/05/22 13:35:12;;;;;;;0.00;0.00;;;25.30;68.00;;;;;;4131189;28;20058;-72